This demonstration page uses our WeatherBlox Daily Observations layout. Learn more.

38.89511, -77.03637

Hourly Observations for September 20, 2015

Temp ( °F °C ) Dew Point ( °F °C ) Humidity (%) Winds ( mph kmh ) Pressure ( in mb ) Visibility ( mi km ) Precip ( " mm )
12:52 am 00:52 Mostly Cloudy 73 23 66 19 78 78 S 9 15 29.88 1012 10 16.09344 0 0
1:52 am 01:52 Mostly Cloudy 72 22 66 19 83 83 S 5 7 29.88 1012 10 16.09344 0 0
2:52 am 02:52 Mostly Cloudy 72 22 66 19 83 83 SW 3 6 29.88 1012 10 16.09344 0 0
3:52 am 03:52 Mostly Cloudy 70 21 66 19 88 88 SW 3 6 29.88 1012 10 16.09344 0 0
4:52 am 04:52 Mostly Cloudy 72 22 63 17 73 73 NNW 12 19 29.91 1013 10 16.09344 0 0
5:52 am 05:52 Mostly Cloudy 70 21 63 17 78 78 NNW 14 22 29.94 1014 10 16.09344 0 0
6:52 am 06:52 Mostly Cloudy 70 21 59 15 69 69 NNW 14 22 29.97 1015 10 16.09344 0 0
7:52 am 07:52 Mostly Cloudy 70 21 57 14 64 64 NW 14 22 30 1016 10 16.09344 0 0
8:36 am 08:36 Mostly Cloudy 70 21 57 14 64 64 NNW 12 19 30 1016 10 16.09344 0 0
8:38 am 08:38 Mostly Cloudy 70 21 57 14 64 64 NNW 12 19 30 1016 10 16.09344 0 0
8:52 am 08:52 Mostly Cloudy 70 21 55 13 60 60 N 14 22 30 1016 10 16.09344 0 0
9:52 am 09:52 Mostly Cloudy 70 21 54 12 57 57 N 15 24 30.03 1017 10 16.09344 0 0
10:52 am 10:52 Mostly Cloudy 73 23 55 13 53 53 N 12 19 30.03 1017 10 16.09344 0 0
11:52 am 11:52 Mostly Cloudy 75 24 57 14 54 54 N 14 22 30.06 1018 10 16.09344 0 0
12:52 pm 12:52 Mostly Cloudy 75 24 57 14 54 54 N 13 20 30.06 1018 10 16.09344 0 0
1:52 pm 13:52 Mostly Cloudy 77 25 57 14 51 51 NNE 9 15 30.03 1017 10 16.09344 0 0
2:52 pm 14:52 Partly Cloudy 81 27 55 13 42 42 N 9 15 30 1016 10 16.09344 0 0
3:52 pm 15:52 Partly Cloudy 81 27 54 12 39 39 NNE 9 15 30 1016 10 16.09344 0 0
4:52 pm 16:52 Partly Cloudy 79 26 54 12 42 42 N 12 19 30 1016 10 16.09344 0 0
5:52 pm 17:52 Partly Cloudy 79 26 54 12 42 42 NNE 13 20 30 1016 10 16.09344 0 0
6:52 pm 18:52 Mostly Cloudy 75 24 54 12 47 47 N 8 13 30 1016 10 16.09344 0 0
7:52 pm 19:52 Mostly Cloudy 73 23 54 12 50 50 N 9 15 30.03 1017 10 16.09344 0 0
8:52 pm 20:52 Mostly Cloudy 73 23 52 11 47 47 NNE 13 20 30.06 1018 10 16.09344 0 0
9:52 pm 21:52 Mostly Cloudy 73 23 50 10 44 44 NNE 13 20 30.06 1018 10 16.09344 0 0
10:52 pm 22:52 Mostly Cloudy 72 22 50 10 47 47 NNE 12 19 30.06 1018 10 16.09344 0 0
11:52 pm 23:52 Cloudy 70 21 48 9 46 46 NNE 12 19 30.06 1018 10 16.09344 0 0

Powered by AerisWeather